Southwick, United Kingdom
Current Conditions -  °F | °C
As of 2:20 PM on Wednesday 28 Jan 2015 (Local Time) from EGGD Reporting Station
Scattered Clouds Scattered Clouds  
Wind Chill: 31°   Ceiling: Unl
Heat Index: 41°   Visibility: 6mi
Dew Point: 28°   Wind: 25mph
Humidity: 61%   Direction: 280°W
Pressure: 29.65"   Gusts: NA
Location:  51.3°N, 2.23°W
Report Text: EGGD 281420Z 28022KT 9999 SCT039 05/M02 Q1004
Loading
Personal Weather Stations






























Interactive Weather Map New forecast layout! Learn more

10-Day Weather Forecast

Advertisements
Track Severe Weather on mobile